Time;durP1;ratioP1;P1;durP2;ratioP2;P2;SDS_P1;SDS_P2;PMS_P1;PMS_P2;Temp;Humidity;BMP_temperature;BMP_pressure;BME280_temperature;BME280_humidity;BME280_pressure;Samples;Min_cycle;Max_cycle;Signal;HPM_P1;HPM_P2
2020/12/20 00:02:37;;;;;;;0.50;0.50;;;;;;;-0.60;100.00;100250.22;4946263;29;20533;-69
2020/12/20 00:05:25;;;;;;;0.60;0.40;;;;;;;-0.61;100.00;100241.69;4948199;28;20112;-68
2020/12/20 00:08:11;;;;;;;0.40;0.40;;;;;;;-0.60;100.00;100238.22;4949254;28;20071;-71
2020/12/20 00:10:57;;;;;;;0.73;0.50;;;;;;;-0.58;100.00;100241.56;4936203;29;20079;-71
2020/12/20 00:13:44;;;;;;;0.50;0.50;;;;;;;-0.55;100.00;100248.38;4949877;29;20139;-70
2020/12/20 00:16:31;;;;;;;0.60;0.50;;;;;;;-0.56;100.00;100241.56;4935854;29;20563;-72
2020/12/20 00:19:23;;;;;;;0.50;0.43;;;;;;;-0.52;100.00;100238.03;4933526;29;20059;-71
2020/12/20 00:22:12;;;;;;;0.82;0.57;;;;;;;-0.50;100.00;100235.41;4949414;29;20051;-67
2020/12/20 00:25:00;;;;;;;0.65;0.40;;;;;;;-0.52;100.00;100231.16;4936360;29;20048;-70
2020/12/20 00:27:46;;;;;;;0.60;0.43;;;;;;;-0.49;100.00;100237.09;4949346;28;20198;-72
2020/12/20 00:30:33;;;;;;;0.40;0.32;;;;;;;-0.48;100.00;100246.47;4948795;28;20047;-71
2020/12/20 00:33:19;;;;;;;0.40;0.40;;;;;;;-0.52;100.00;100245.72;4949529;29;20156;-70
2020/12/20 00:36:07;;;;;;;0.80;0.50;;;;;;;-0.49;100.00;100244.78;4949018;29;20056;-72
2020/12/20 00:38:53;;;;;;;0.52;0.47;;;;;;;-0.53;100.00;100239.72;4949250;28;20047;-72
2020/12/20 00:41:41;;;;;;;0.70;0.43;;;;;;;-0.48;100.00;100231.91;4949079;29;20047;-72
2020/12/20 00:44:28;;;;;;;0.60;0.40;;;;;;;-0.47;100.00;100243.03;4932514;29;20080;-70
2020/12/20 00:47:15;;;;;;;0.47;0.40;;;;;;;-0.46;100.00;100239.59;4948627;28;20409;-71
2020/12/20 00:50:01;;;;;;;0.50;0.40;;;;;;;-0.45;100.00;100228.41;4948958;29;20110;-69
2020/12/20 00:52:48;;;;;;;0.52;0.52;;;;;;;-0.45;100.00;100233.56;4935893;29;20055;-70
2020/12/20 00:55:34;;;;;;;0.38;0.38;;;;;;;-0.41;100.00;100232.59;4945893;29;20060;-68
2020/12/20 00:58:21;;;;;;;0.50;0.50;;;;;;;-0.41;100.00;100232.59;4935371;29;20511;-69
2020/12/20 01:01:10;;;;;;;0.50;0.40;;;;;;;-0.38;100.00;100222.22;4932690;29;20043;-71
2020/12/20 01:03:57;;;;;;;0.50;0.40;;;;;;;-0.40;100.00;100217.13;4935561;29;20486;-69
2020/12/20 01:06:44;;;;;;;0.55;0.40;;;;;;;-0.42;100.00;100218.91;4932963;29;20055;-68
2020/12/20 01:09:42;;;;;;;0.47;0.47;;;;;;;-0.39;100.00;100230.81;4932963;29;20059;-71
2020/12/20 01:12:31;;;;;;;0.40;0.40;;;;;;;-0.39;100.00;100228.25;4935142;29;20047;-69
2020/12/20 01:15:29;;;;;;;0.38;0.38;;;;;;;-0.36;100.00;100220.47;4936023;29;20077;-71
2020/12/20 01:18:18;;;;;;;0.32;0.32;;;;;;;-0.40;100.00;100214.56;4933561;29;20052;-68
2020/12/20 01:21:04;;;;;;;0.90;0.60;;;;;;;-0.36;100.00;100215.31;4935035;29;20447;-69
2020/12/20 01:23:51;;;;;;;0.45;0.40;;;;;;;-0.35;100.00;100211.88;4935122;29;20051;-72
2020/12/20 01:26:38;;;;;;;0.50;0.47;;;;;;;-0.35;100.00;100209.28;4948306;28;20056;-71
2020/12/20 01:29:24;;;;;;;0.47;0.47;;;;;;;-0.32;100.00;100215.19;4948427;29;20052;-69
2020/12/20 01:32:11;;;;;;;0.55;0.38;;;;;;;-0.32;100.00;100206.66;4948204;29;20055;-72
2020/12/20 01:35:00;;;;;;;0.40;0.40;;;;;;;-0.31;100.00;100209.16;4935372;29;20051;-72
2020/12/20 01:37:47;;;;;;;0.40;0.40;;;;;;;-0.31;100.00;100204.03;4931862;29;20103;-71
2020/12/20 01:40:34;;;;;;;0.40;0.40;;;;;;;-0.31;100.00;100198.88;4933732;29;20435;-67
2020/12/20 01:43:21;;;;;;;0.40;0.40;;;;;;;-0.29;100.00;100203.97;4948097;29;20107;-72
2020/12/20 01:46:10;;;;;;;0.47;0.40;;;;;;;-0.28;100.00;100205.69;4932496;29;20063;-69
2020/12/20 01:48:57;;;;;;;0.40;0.40;;;;;;;-0.26;100.00;100211.59;4945345;28;20059;-72
2020/12/20 01:51:47;;;;;;;0.50;0.50;;;;;;;-0.26;100.00;100206.47;4942486;29;20066;-71
2020/12/20 01:54:34;;;;;;;0.80;0.63;;;;;;;-0.26;100.00;100196.19;4934401;29;20547;-70
2020/12/20 01:57:37;;;;;;;1.45;0.77;;;;;;;-0.27;100.00;100203.06;4947618;29;20103;-70
2020/12/20 02:00:43;;;;;;;1.42;0.75;;;;;;;-0.26;100.00;100202.16;4934141;29;20054;-71
2020/12/20 02:03:48;;;;;;;0.28;0.28;;;;;;;-0.24;100.00;100203.84;4948057;29;20051;-69
2020/12/20 02:06:45;;;;;;;0.90;0.50;;;;;;;-0.24;100.00;100204.69;4934062;29;20043;-70
2020/12/20 02:09:36;;;;;;;1.35;0.50;;;;;;;-0.24;100.00;100199.53;4934236;29;20554;-70
2020/12/20 02:12:26;;;;;;;0.30;0.30;;;;;;;-0.22;100.00;100207.22;4934266;29;20078;-67
2020/12/20 02:15:28;;;;;;;0.30;0.30;;;;;;;-0.21;100.00;100206.34;4935398;29;20142;-69
2020/12/20 02:18:18;;;;;;;0.40;0.38;;;;;;;-0.22;100.00;100207.22;4933860;29;20052;-71
2020/12/20 02:21:14;;;;;;;0.35;0.35;;;;;;;-0.19;100.00;100207.13;4931889;29;20063;-68
2020/12/20 02:24:03;;;;;;;0.30;0.30;;;;;;;-0.20;100.00;100203.72;4943879;29;20075;-69
2020/12/20 02:26:57;;;;;;;0.40;0.30;;;;;;;-0.21;100.00;100204.59;4947537;29;20407;-69
2020/12/20 02:29:44;;;;;;;0.43;0.32;;;;;;;-0.19;100.00;100200.28;4932477;29;20279;-69
2020/12/20 02:32:30;;;;;;;0.55;0.40;;;;;;;-0.19;100.00;100204.56;4933904;29;20119;-68
2020/12/20 02:35:17;;;;;;;0.40;0.40;;;;;;;-0.17;100.00;100202.78;4947154;28;20050;-68
2020/12/20 02:38:03;;;;;;;0.70;0.40;;;;;;;-0.18;100.00;100198.56;4934121;29;20062;-71
2020/12/20 02:40:50;;;;;;;0.43;0.40;;;;;;;-0.19;100.00;100207.13;4947288;29;20043;-70
2020/12/20 02:43:37;;;;;;;0.35;0.30;;;;;;;-0.20;100.00;100202.88;4947242;29;20043;-70
2020/12/20 02:46:30;;;;;;;1.17;0.50;;;;;;;-0.21;100.00;100199.47;4947158;29;20140;-71
2020/12/20 02:49:22;;;;;;;0.40;0.40;;;;;;;-0.21;100.00;100194.31;4933815;29;20056;-69
2020/12/20 02:52:10;;;;;;;0.52;0.30;;;;;;;-0.19;100.00;100194.28;4933628;29;20055;-69
2020/12/20 02:54:57;;;;;;;0.68;0.40;;;;;;;-0.23;100.00;100193.53;4934998;29;20135;-71
2020/12/20 02:57:54;;;;;;;1.02;0.50;;;;;;;-0.20;100.00;100195.16;4947010;29;20503;-68
2020/12/20 03:00:59;;;;;;;;;;;;;;;-0.22;100.00;100190.06;4933845;29;21285;-70
2020/12/20 03:03:45;;;;;;;0.38;0.38;;;;;;;-0.21;100.00;100184.03;4933701;29;20010;-71
2020/12/20 03:06:32;;;;;;;1.23;0.57;;;;;;;-0.18;100.00;100185.69;4933142;29;20043;-72
2020/12/20 03:09:22;;;;;;;0.73;0.50;;;;;;;-0.20;100.00;100185.72;4933642;29;20059;-67
2020/12/20 03:12:09;;;;;;;0.90;0.65;;;;;;;-0.17;100.00;100179.66;4933489;29;20051;-67
2020/12/20 03:14:55;;;;;;;0.63;0.50;;;;;;;-0.18;100.00;100176.25;4932069;29;20115;-70
2020/12/20 03:17:43;;;;;;;0.93;0.73;;;;;;;-0.17;100.00;100179.66;4933631;29;20051;-68
2020/12/20 03:20:30;;;;;;;0.63;0.50;;;;;;;-0.19;100.00;100177.16;4949442;28;20052;-69
2020/12/20 03:23:17;;;;;;;0.93;0.55;;;;;;;-0.16;100.00;100177.03;4952827;29;20499;-71
2020/12/20 03:26:24;;;;;;;0.73;0.60;;;;;;;-0.17;100.00;100177.09;4950765;29;20406;-71
2020/12/20 03:29:49;;;;;;;0.95;0.70;;;;;;;-0.14;100.00;100184.69;4880984;29;20045;-69
2020/12/20 03:32:55;;;;;;;1.05;0.57;;;;;;;-0.12;100.00;100183.78;4881505;29;20057;-70
2020/12/20 03:36:06;;;;;;;2.72;0.70;;;;;;;-0.14;100.00;100177.84;4952557;28;20051;-70
2020/12/20 03:38:53;;;;;;;1.02;0.75;;;;;;;-0.10;100.00;100181.16;4952215;28;20131;-73
2020/12/20 03:41:39;;;;;;;0.90;0.52;;;;;;;-0.08;100.00;100187.13;4955780;29;20039;-70
2020/12/20 03:44:31;;;;;;;2.25;0.70;;;;;;;-0.08;100.00;100187.13;4956040;28;20172;-69
2020/12/20 03:47:18;;;;;;;0.70;0.50;;;;;;;-0.07;100.00;100187.06;4942887;29;20415;-67
2020/12/20 03:50:06;;;;;;;0.57;0.50;;;;;;;-0.07;100.00;100179.34;4943067;28;20146;-69
2020/12/20 03:52:53;;;;;;;0.77;0.60;;;;;;;-0.08;100.00;100175.09;4956331;29;20047;-71
2020/12/20 03:55:45;;;;;;;1.25;0.80;;;;;;;-0.11;100.00;100175.19;4955775;28;20063;-71
2020/12/20 03:58:31;;;;;;;1.17;0.60;;;;;;;-0.08;100.00;100179.41;4952896;29;20058;-70
2020/12/20 04:01:18;;;;;;;0.90;0.70;;;;;;;-0.08;100.00;100182.81;4955904;29;20054;-71
2020/12/20 04:04:05;;;;;;;0.65;0.50;;;;;;;-0.07;100.00;100184.50;4942437;29;20055;-68
2020/12/20 04:06:52;;;;;;;1.20;0.70;;;;;;;-0.12;100.00;100175.22;4942316;29;20047;-71
2020/12/20 04:09:42;;;;;;;1.27;0.70;;;;;;;-0.14;100.00;100175.28;4955740;29;20047;-70
2020/12/20 04:12:42;;;;;;;0.77;0.60;;;;;;;-0.11;100.00;100177.75;4955807;29;20134;-70
2020/12/20 04:15:29;;;;;;;2.03;1.20;;;;;;;-0.11;100.00;100172.59;4945362;29;20051;-69
2020/12/20 04:18:15;;;;;;;2.30;0.70;;;;;;;-0.08;100.00;100182.81;4941953;29;20494;-69
2020/12/20 04:21:04;;;;;;;0.93;0.63;;;;;;;-0.07;100.00;100176.78;4955429;29;20055;-70
2020/12/20 04:23:52;;;;;;;0.98;0.65;;;;;;;-0.07;100.00;100178.50;4942106;29;20051;-69
2020/12/20 04:26:44;;;;;;;0.80;0.50;;;;;;;-0.04;100.00;100175.84;4941825;29;20102;-73
2020/12/20 04:29:39;;;;;;;1.33;0.80;;;;;;;-0.04;100.00;100175.84;4955221;29;20053;-68
2020/12/20 04:32:27;;;;;;;1.80;0.82;;;;;;;-0.05;100.00;100174.16;4952069;28;20503;-70
2020/12/20 04:35:13;;;;;;;0.88;0.60;;;;;;;-0.06;100.00;100181.03;4941679;29;20494;-72
2020/12/20 04:38:01;;;;;;;0.60;0.60;;;;;;;-0.06;100.00;100183.59;4955198;29;20047;-71
2020/12/20 04:40:56;;;;;;;0.70;0.60;;;;;;;-0.05;100.00;100182.72;4954760;28;20450;-72
2020/12/20 04:43:43;;;;;;;0.70;0.50;;;;;;;-0.02;100.00;100187.75;4941946;29;20455;-68
2020/12/20 04:46:30;;;;;;;1.75;0.88;;;;;;;-0.01;100.00;100183.47;4941465;28;20126;-72
2020/12/20 04:49:30;;;;;;;0.98;0.70;;;;;;;-0.02;100.00;100185.19;4941613;29;20106;-72
2020/12/20 04:52:23;;;;;;;1.17;0.77;;;;;;;-0.01;100.00;100184.28;4940495;29;20062;-71
2020/12/20 04:55:13;;;;;;;1.70;0.95;;;;;;;0.00;100.00;100185.16;4941984;29;20051;-71
2020/12/20 04:58:27;;;;;;;7.80;2.20;;;;;;;-0.01;100.00;100181.72;4941432;29;20198;-69
2020/12/20 05:01:18;;;;;;;1.88;0.88;;;;;;;-0.02;100.00;100189.50;4925800;29;20044;-70
2020/12/20 05:04:05;;;;;;;0.75;0.60;;;;;;;-0.02;100.00;100177.47;4951046;28;20483;-69
2020/12/20 05:06:53;;;;;;;1.02;0.70;;;;;;;-0.02;100.00;100181.78;4941020;28;20380;-71
2020/12/20 05:09:53;;;;;;;4.15;0.80;;;;;;;-0.02;100.00;100185.19;4947187;28;20107;-68
2020/12/20 05:12:53;;;;;;;1.10;0.70;;;;;;;-0.04;100.00;100179.25;4954312;28;20474;-71
2020/12/20 05:15:45;;;;;;;0.90;0.68;;;;;;;-0.09;100.00;100176.00;4954193;29;20055;-72
2020/12/20 05:18:48;;;;;;;0.75;0.60;;;;;;;-0.06;100.00;100180.19;4954503;28;20059;-69
2020/12/20 05:21:36;;;;;;;0.75;0.70;;;;;;;-0.06;100.00;100188.72;4954205;29;20055;-69
2020/12/20 05:24:27;;;;;;;2.67;1.00;;;;;;;-0.06;100.00;100187.91;4954475;29;20062;-71
2020/12/20 05:27:30;;;;;;;0.95;0.65;;;;;;;-0.06;100.00;100185.31;4954557;28;20050;-69
2020/12/20 05:30:24;;;;;;;2.67;0.70;;;;;;;-0.04;100.00;100181.00;4940914;29;20058;-72
2020/12/20 05:33:30;;;;;;;0.73;0.57;;;;;;;-0.05;100.00;100179.28;4954041;28;20043;-73
2020/12/20 05:36:37;;;;;;;1.13;0.70;;;;;;;-0.08;100.00;100175.09;4952450;29;20047;-69
2020/12/20 05:39:48;;;;;;;0.60;0.60;;;;;;;-0.02;100.00;100176.63;4940598;28;20051;-70
2020/12/20 05:43:07;;;;;;;1.20;0.80;;;;;;;0.00;100.00;100172.31;4942922;29;20051;-69
2020/12/20 05:46:00;;;;;;;1.30;0.70;;;;;;;-0.03;100.00;100192.97;4940332;28;20138;-69
2020/12/20 05:49:14;;;;;;;0.90;0.70;;;;;;;-0.06;100.00;100178.44;4940857;28;20055;-68
2020/12/20 05:52:06;;;;;;;1.05;0.70;;;;;;;-0.03;100.00;100186.09;4953411;28;20051;-72
2020/12/20 05:54:52;;;;;;;3.33;0.80;;;;;;;-0.02;100.00;100179.22;4953853;29;20039;-68
2020/12/20 05:57:40;;;;;;;1.30;0.80;;;;;;;-0.02;100.00;100177.47;4953315;28;20055;-69
2020/12/20 06:00:28;;;;;;;0.95;0.80;;;;;;;-0.04;100.00;100184.41;4953865;28;20047;-69
2020/12/20 06:03:16;;;;;;;0.98;0.60;;;;;;;-0.02;100.00;100179.22;4940240;29;20129;-68
2020/12/20 06:06:06;;;;;;;1.35;0.63;;;;;;;-0.01;100.00;100186.03;4953155;29;20058;-68
2020/12/20 06:08:54;;;;;;;0.60;0.50;;;;;;;-0.01;100.00;100183.47;4953389;29;20134;-71
2020/12/20 06:11:45;;;;;;;0.88;0.75;;;;;;;0.02;100.00;100187.69;4940110;29;20047;-69
2020/12/20 06:14:31;;;;;;;2.00;0.85;;;;;;;0.03;100.00;100182.47;4940389;28;20129;-73
2020/12/20 06:17:22;;;;;;;1.48;0.80;;;;;;;0.03;100.00;100199.63;4951808;29;20039;-71
2020/12/20 06:20:27;;;;;;;1.08;0.80;;;;;;;0.05;100.00;100188.44;4953039;28;20130;-71
2020/12/20 06:23:17;;;;;;;0.75;0.60;;;;;;;0.08;100.00;100192.63;4953501;29;20047;-71
2020/12/20 06:26:05;;;;;;;0.80;0.70;;;;;;;0.08;100.00;100190.91;4955243;28;20522;-68
2020/12/20 06:28:56;;;;;;;0.57;0.50;;;;;;;0.11;100.00;100195.13;4953394;28;20490;-71
2020/12/20 06:31:43;;;;;;;2.05;0.98;;;;;;;0.12;100.00;100195.06;4940008;28;20137;-69
2020/12/20 06:34:30;;;;;;;2.17;1.00;;;;;;;0.14;100.00;100201.03;4953312;29;20046;-70
2020/12/20 06:37:18;;;;;;;1.00;0.70;;;;;;;0.15;100.00;100194.97;4952885;28;20058;-72
2020/12/20 06:40:04;;;;;;;1.10;0.68;;;;;;;0.18;100.00;100196.59;4951546;29;20063;-69
2020/12/20 06:42:52;;;;;;;1.15;0.50;;;;;;;0.18;100.00;100197.44;4950490;28;20472;-69
2020/12/20 06:45:48;;;;;;;0.73;0.50;;;;;;;0.21;100.00;100194.78;4950240;29;20078;-70
2020/12/20 06:48:39;;;;;;;0.93;0.60;;;;;;;0.20;100.00;100192.28;4952955;29;20094;-68
2020/12/20 06:51:28;;;;;;;1.15;0.50;;;;;;;0.19;100.00;100196.59;4952816;28;20099;-71
2020/12/20 06:54:23;;;;;;;1.25;0.80;;;;;;;0.18;100.00;100189.72;4939581;29;20814;-70
2020/12/20 06:57:10;;;;;;;0.98;0.50;;;;;;;0.19;100.00;100198.28;4952496;29;20118;-72
2020/12/20 06:59:59;;;;;;;2.95;1.20;;;;;;;0.16;100.00;100200.97;4952545;28;20431;-72
2020/12/20 07:02:48;;;;;;;1.15;0.90;;;;;;;0.18;100.00;100194.88;4952637;29;20079;-70
2020/12/20 07:05:38;;;;;;;1.48;1.00;;;;;;;0.19;100.00;100203.41;4951285;28;20047;-72
2020/12/20 07:08:30;;;;;;;1.40;1.05;;;;;;;0.21;100.00;100199.09;4952607;29;20106;-71
2020/12/20 07:11:20;;;;;;;1.35;0.80;;;;;;;0.21;100.00;100196.53;4950833;29;20062;-69
2020/12/20 07:14:22;;;;;;;1.10;0.68;;;;;;;0.25;100.00;100198.97;4939676;29;20080;-70
2020/12/20 07:17:25;;;;;;;2.35;1.13;;;;;;;0.30;100.00;100190.25;4955871;28;20082;-69
2020/12/20 07:20:11;;;;;;;1.40;0.77;;;;;;;0.31;100.00;100199.66;4942580;29;20138;-71
2020/12/20 07:22:58;;;;;;;2.90;1.05;;;;;;;0.34;100.00;100205.56;4955764;28;20047;-70
2020/12/20 07:25:46;;;;;;;2.38;0.70;;;;;;;0.36;100.00;100196.03;4955975;29;20118;-70
2020/12/20 07:28:33;;;;;;;1.95;1.10;;;;;;;0.38;100.00;100203.72;4955163;28;20063;-68
2020/12/20 07:31:20;;;;;;;2.35;1.20;;;;;;;0.40;100.00;100202.78;4953507;28;20063;-71
2020/12/20 07:34:07;;;;;;;1.17;0.88;;;;;;;0.43;100.00;100210.41;4951229;28;20478;-71
2020/12/20 07:36:55;;;;;;;3.97;1.40;;;;;;;0.46;100.00;100209.47;4956038;28;20075;-72
2020/12/20 07:39:41;;;;;;;1.70;0.90;;;;;;;0.45;100.00;100207.78;4955805;29;20091;-69
2020/12/20 07:42:27;;;;;;;0.77;0.60;;;;;;;0.49;100.00;100217.09;4927498;29;20059;-69
2020/12/20 07:45:15;;;;;;;2.88;1.10;;;;;;;0.51;100.00;100221.28;4955719;28;20098;-71
2020/12/20 07:48:01;;;;;;;0.82;0.50;;;;;;;0.54;100.00;100219.53;4956082;28;20075;-71
2020/12/20 07:50:47;;;;;;;1.00;0.60;;;;;;;0.59;100.00;100217.66;4955743;29;20044;-71
2020/12/20 07:53:45;;;;;;;0.85;0.70;;;;;;;0.61;100.00;100208.97;4939263;28;20589;-71
2020/12/20 07:56:38;;;;;;;3.17;0.77;;;;;;;0.66;100.00;100213.97;4955627;28;20491;-70
2020/12/20 07:59:24;;;;;;;1.20;0.57;;;;;;;0.66;100.00;100208.81;4955388;29;20066;-71
2020/12/20 08:02:19;;;;;;;0.68;0.45;;;;;;;0.67;100.00;100206.22;4955478;29;20051;-71
2020/12/20 08:05:10;;;;;;;0.70;0.50;;;;;;;0.67;100.00;100210.53;4955889;28;20051;-71
2020/12/20 08:07:57;;;;;;;1.08;0.60;;;;;;;0.68;100.00;100209.63;4942081;28;20055;-70
2020/12/20 08:10:43;;;;;;;1.75;1.00;;;;;;;0.69;100.00;100199.28;4955277;28;20121;-69
2020/12/20 08:13:31;;;;;;;1.00;0.70;;;;;;;0.73;100.00;100197.47;4955316;28;20071;-70
2020/12/20 08:16:22;;;;;;;1.02;0.70;;;;;;;0.74;100.00;100202.56;4939145;29;20082;-69
2020/12/20 08:19:18;;;;;;;1.10;0.70;;;;;;;0.72;100.00;100195.78;4955263;28;20702;-70
2020/12/20 08:22:13;;;;;;;2.67;1.27;;;;;;;0.75;100.00;100204.22;4941767;28;20074;-71
2020/12/20 08:25:06;;;;;;;;;;;;;;;0.72;100.00;100204.34;4955464;28;20051;-71
2020/12/20 08:27:53;;;;;;;4.15;1.60;;;;;;;0.75;100.00;100199.06;4941843;29;19961;-71
2020/12/20 08:30:39;;;;;;;2.17;1.25;;;;;;;0.77;100.00;100205.03;4954927;28;20106;-71
2020/12/20 08:33:33;;;;;;;1.25;0.80;;;;;;;0.81;100.00;100202.34;4955830;28;20043;-71
2020/12/20 08:36:20;;;;;;;;;;;;;;;0.80;100.00;100209.22;4955041;28;20066;-70
2020/12/20 08:39:07;;;;;;;1.83;1.00;;;;;;;0.81;100.00;100203.22;4954742;28;20342;-69
2020/12/20 08:42:20;;;;;;;3.20;1.50;;;;;;;0.83;100.00;100204.00;4954478;28;20047;-71
2020/12/20 08:45:18;;;;;;;1.98;1.20;;;;;;;0.84;100.00;100192.78;4941596;29;20569;-68
2020/12/20 08:48:04;;;;;;;2.25;1.33;;;;;;;0.84;100.00;100197.94;4953711;28;20086;-70
2020/12/20 08:50:55;;;;;;;2.97;1.52;;;;;;;0.84;100.00;100197.09;4954949;29;20043;-69
2020/12/20 08:53:41;;;;;;;3.28;2.03;;;;;;;0.86;100.00;100196.19;4941151;28;20059;-72
2020/12/20 08:56:27;;;;;;;5.20;2.53;;;;;;;0.88;100.00;100212.41;4941053;29;20502;-72
2020/12/20 08:59:25;;;;;;;2.83;1.50;;;;;;;0.90;100.00;100210.63;4940578;29;20055;-71
2020/12/20 09:02:24;;;;;;;4.95;2.10;;;;;;;0.90;100.00;100210.63;4954195;28;20039;-68
2020/12/20 09:05:15;;;;;;;4.45;2.08;;;;;;;0.92;100.00;100210.56;4953123;29;20067;-70
2020/12/20 09:08:05;;;;;;;4.55;2.75;;;;;;;0.93;100.00;100214.81;4954601;29;20047;-69
2020/12/20 09:10:51;;;;;;;3.80;2.17;;;;;;;0.93;100.00;100213.09;4954175;28;20114;-71
2020/12/20 09:13:38;;;;;;;4.47;2.30;;;;;;;0.96;100.00;100225.88;4954313;29;20043;-71
2020/12/20 09:16:24;;;;;;;7.13;2.63;;;;;;;0.98;100.00;100229.22;4954196;29;20118;-70
2020/12/20 09:19:14;;;;;;;5.60;3.20;;;;;;;1.00;100.00;100231.78;4952062;29;20063;-71
2020/12/20 09:22:02;;;;;;;6.35;2.85;;;;;;;1.01;100.00;100231.72;4937582;29;20095;-71
2020/12/20 09:24:58;;;;;;;5.57;2.90;;;;;;;0.95;100.00;100243.94;4954669;29;20059;-70
2020/12/20 09:27:52;;;;;;;7.65;2.90;;;;;;;0.95;100.00;100246.50;4953868;28;20453;-71
2020/12/20 09:30:40;;;;;;;5.50;3.22;;;;;;;0.97;100.00;100242.16;4954032;29;20380;-71
2020/12/20 09:33:33;;;;;;;6.40;3.40;;;;;;;0.97;100.00;100263.59;4953885;29;20153;-71
2020/12/20 09:36:24;;;;;;;6.38;3.55;;;;;;;0.95;100.00;100259.38;4953458;29;20099;-72
2020/12/20 09:39:13;;;;;;;6.57;3.70;;;;;;;0.94;100.00;100260.28;4940183;29;20081;-70
2020/12/20 09:42:00;;;;;;;8.23;4.70;;;;;;;0.92;100.00;100264.63;4940081;28;20057;-70
2020/12/20 09:44:46;;;;;;;8.10;4.05;;;;;;;0.93;100.00;100266.31;4953825;29;20133;-72
2020/12/20 09:47:37;;;;;;;8.80;4.38;;;;;;;0.94;100.00;100266.25;4953858;28;20438;-69
2020/12/20 09:50:24;;;;;;;8.93;3.97;;;;;;;0.96;100.00;100261.09;4948363;28;20138;-70
2020/12/20 09:53:10;;;;;;;7.15;4.15;;;;;;;0.96;100.00;100261.91;4939123;28;20058;-71
2020/12/20 09:55:57;;;;;;;8.52;4.60;;;;;;;0.96;100.00;100268.81;4937269;29;20058;-70
2020/12/20 09:58:44;;;;;;;7.70;4.43;;;;;;;0.95;100.00;100272.25;4939458;29;20125;-68
2020/12/20 10:01:32;;;;;;;7.95;5.05;;;;;;;0.99;100.00;100271.25;4951002;29;20517;-70
2020/12/20 10:04:19;;;;;;;9.25;5.43;;;;;;;0.97;100.00;100271.31;4936680;29;20141;-68
2020/12/20 10:07:05;;;;;;;6.53;3.95;;;;;;;0.99;100.00;100263.53;4952675;28;20531;-70
2020/12/20 10:09:51;;;;;;;6.20;4.15;;;;;;;0.95;100.00;100272.25;4952894;28;20056;-69
2020/12/20 10:12:39;;;;;;;10.18;5.05;;;;;;;0.96;100.00;100277.38;4952762;28;20059;-69
2020/12/20 10:15:25;;;;;;;11.70;5.75;;;;;;;0.98;100.00;100277.31;4938747;29;20043;-69
2020/12/20 10:18:12;;;;;;;14.32;6.80;;;;;;;0.98;100.00;100283.28;4952922;29;20585;-71
2020/12/20 10:20:58;;;;;;;9.68;5.97;;;;;;;0.99;100.00;100289.28;4952402;29;20051;-70
2020/12/20 10:23:45;;;;;;;8.63;5.03;;;;;;;0.94;100.00;100289.44;4952150;29;20047;-71
2020/12/20 10:26:31;;;;;;;9.93;4.45;;;;;;;0.98;100.00;100288.44;4952910;28;20109;-70
2020/12/20 10:29:18;;;;;;;10.32;5.80;;;;;;;0.96;100.00;100289.41;4952923;29;20091;-71
2020/12/20 10:32:04;;;;;;;11.57;6.35;;;;;;;0.94;100.00;100293.75;4939513;29;20055;-71
2020/12/20 10:34:51;;;;;;;10.00;6.03;;;;;;;0.92;100.00;100306.69;4952953;28;20498;-71
2020/12/20 10:37:37;;;;;;;9.30;6.38;;;;;;;0.94;100.00;100317.75;4952668;28;20039;-69
2020/12/20 10:40:27;;;;;;;9.48;5.57;;;;;;;0.92;100.00;100314.41;4952945;29;20102;-70
2020/12/20 10:43:14;;;;;;;8.98;6.07;;;;;;;0.91;100.00;100299.00;4953151;28;20141;-70
2020/12/20 10:46:01;;;;;;;13.20;6.75;;;;;;;0.94;100.00;100293.75;4952956;29;20502;-70
2020/12/20 10:48:47;;;;;;;11.25;5.55;;;;;;;0.93;100.00;100295.47;4951901;28;20055;-71
2020/12/20 10:51:33;;;;;;;11.85;5.45;;;;;;;0.92;100.00;100293.81;4952834;28;20055;-68
2020/12/20 10:54:21;;;;;;;9.65;5.40;;;;;;;0.90;100.00;100294.72;4952464;28;20050;-71
2020/12/20 10:57:07;;;;;;;12.43;5.88;;;;;;;0.91;100.00;100302.41;4952913;28;20134;-69
2020/12/20 10:59:54;;;;;;;15.73;7.00;;;;;;;0.95;100.00;100303.16;4952606;28;20102;-70
2020/12/20 11:02:40;;;;;;;9.20;5.43;;;;;;;0.91;100.00;100304.16;4926406;29;20079;-71
2020/12/20 11:05:43;;;;;;;12.10;5.55;;;;;;;0.94;100.00;100311.75;4952395;28;20090;-71
2020/12/20 11:08:29;;;;;;;9.32;5.97;;;;;;;0.91;100.00;100317.88;4952647;29;20078;-71
2020/12/20 11:11:17;;;;;;;8.25;5.28;;;;;;;0.94;100.00;100325.47;4952491;29;20051;-71
2020/12/20 11:14:04;;;;;;;12.80;6.20;;;;;;;0.91;100.00;100311.88;4953171;28;20110;-70
2020/12/20 11:16:54;;;;;;;7.25;4.30;;;;;;;0.91;100.00;100309.31;4950208;28;20114;-71
2020/12/20 11:19:41;;;;;;;8.45;4.43;;;;;;;0.93;100.00;100313.50;4952260;28;20047;-72
2020/12/20 11:22:27;;;;;;;12.57;6.22;;;;;;;0.94;100.00;100314.34;4939115;29;20051;-71
2020/12/20 11:25:13;;;;;;;9.43;5.07;;;;;;;0.93;100.00;100316.06;4952678;29;20047;-69
2020/12/20 11:28:00;;;;;;;11.50;5.70;;;;;;;0.95;100.00;100316.88;4950340;29;20051;-71
2020/12/20 11:30:47;;;;;;;11.35;6.13;;;;;;;0.95;100.00;100319.47;4938860;28;20047;-70
2020/12/20 11:33:33;;;;;;;10.18;4.93;;;;;;;0.94;100.00;100328.06;4951774;28;20055;-70
2020/12/20 11:36:24;;;;;;;10.75;5.40;;;;;;;0.95;100.00;100323.75;4938462;29;20134;-69
2020/12/20 11:39:13;;;;;;;8.60;5.10;;;;;;;0.92;100.00;100327.28;4947376;28;20142;-70
2020/12/20 11:42:00;;;;;;;8.98;5.85;;;;;;;0.95;100.00;100327.19;4951223;28;20051;-71
2020/12/20 11:44:47;;;;;;;12.68;6.00;;;;;;;0.94;100.00;100340.09;4952254;28;20114;-70
2020/12/20 11:47:38;;;;;;;10.90;6.05;;;;;;;0.91;100.00;100330.75;4951784;29;20063;-69
2020/12/20 11:50:25;;;;;;;10.85;5.85;;;;;;;0.90;100.00;100331.63;4952458;29;20074;-70
2020/12/20 11:53:13;;;;;;;15.18;6.57;;;;;;;0.89;100.00;100337.66;4952598;28;20047;-68
2020/12/20 11:55:59;;;;;;;8.82;6.10;;;;;;;0.91;100.00;100348.75;4952326;28;20067;-69
2020/12/20 11:58:46;;;;;;;11.00;5.53;;;;;;;0.87;100.00;100331.72;4948911;28;20499;-70
2020/12/20 12:01:32;;;;;;;10.38;6.28;;;;;;;0.87;100.00;100347.16;4954501;28;20402;-69
2020/12/20 12:04:19;;;;;;;13.05;6.00;;;;;;;0.88;100.00;100343.69;4939724;29;20054;-71
2020/12/20 12:07:05;;;;;;;11.32;7.18;;;;;;;0.88;100.00;100340.28;4942224;29;20083;-70
2020/12/20 12:09:52;;;;;;;11.60;6.28;;;;;;;0.91;100.00;100333.31;4955539;28;20101;-69
2020/12/20 12:12:38;;;;;;;12.02;6.78;;;;;;;0.93;100.00;100318.66;4954877;28;20046;-67
2020/12/20 12:15:25;;;;;;;9.63;5.90;;;;;;;0.92;100.00;100327.28;4955692;28;20051;-69
2020/12/20 12:18:11;;;;;;;9.98;5.80;;;;;;;0.92;100.00;100324.69;4942190;28;20047;-69
2020/12/20 12:20:58;;;;;;;11.07;5.68;;;;;;;0.90;100.00;100310.16;4955145;29;20058;-70
2020/12/20 12:23:45;;;;;;;13.32;6.65;;;;;;;0.91;100.00;100314.47;4954980;29;20086;-71
2020/12/20 12:26:35;;;;;;;9.88;6.25;;;;;;;0.91;100.00;100322.19;4954725;28;20079;-68
2020/12/20 12:29:22;;;;;;;9.98;5.75;;;;;;;0.91;100.00;100311.88;4954916;28;20376;-71
2020/12/20 12:32:08;;;;;;;8.25;4.68;;;;;;;0.91;100.00;100309.31;4954059;28;20129;-69
2020/12/20 12:34:55;;;;;;;9.32;4.82;;;;;;;0.94;100.00;100306.63;4941905;28;20079;-68
2020/12/20 12:37:41;;;;;;;8.75;4.60;;;;;;;0.93;100.00;100308.34;4940222;28;20074;-72
2020/12/20 12:40:27;;;;;;;9.70;5.60;;;;;;;0.96;100.00;100305.69;4955035;28;20055;-72
2020/12/20 12:43:14;;;;;;;7.97;4.60;;;;;;;0.94;100.00;100307.44;4954698;28;20451;-70
2020/12/20 12:46:00;;;;;;;8.98;4.93;;;;;;;0.95;100.00;100311.75;4955384;28;20048;-72
2020/12/20 12:48:47;;;;;;;7.22;3.80;;;;;;;0.96;100.00;100317.72;4951938;29;20105;-69
2020/12/20 12:51:33;;;;;;;7.22;4.22;;;;;;;0.96;100.00;100316.00;4955021;28;20494;-71
2020/12/20 12:54:20;;;;;;;11.20;4.38;;;;;;;0.98;100.00;100313.34;4955104;28;20070;-69
2020/12/20 12:57:14;;;;;;;8.30;4.32;;;;;;;0.99;100.00;100318.44;4954906;28;20101;-69
2020/12/20 13:00:03;;;;;;;7.03;4.32;;;;;;;0.98;100.00;100316.78;4954832;28;20487;-70
2020/12/20 13:02:50;;;;;;;7.78;4.20;;;;;;;0.97;100.00;100316.84;4939538;29;20048;-71
2020/12/20 13:05:36;;;;;;;8.32;4.53;;;;;;;0.97;100.00;100327.97;4954531;28;20079;-68
2020/12/20 13:08:23;;;;;;;8.50;4.20;;;;;;;0.99;100.00;100326.16;4953573;28;20133;-69